Richfield, Ohio
Current Conditions -  °F | °C
As of 9:54 PM on Tuesday 25 Nov 2014 (Local Time) from KAKR Reporting Station
Overcast Overcast  
Wind Chill: 28°   Ceiling: 2900
Heat Index: 33°   Visibility: 10mi
Dew Point: 26°   Wind: 6mph
Humidity: 75%   Direction: 290°WNW
Pressure: 30.19"   Gusts: NA
Location:  41.24°N, 81.64°W
Report Text: KAKR 260254Z AUTO 29005KT 10SM FEW014 OVC029 01/M03 A3019 RMK AO2 SLP232 T00061033 51017
Loading
Personal Weather Stations






























Interactive Weather Map New forecast layout! Learn more

10-Day Weather Forecast

Advertisements
Track Severe Weather on mobile